sensor_id;sensor_type;location;lat;lon;timestamp;P1;durP1;ratioP1;P2;durP2;ratioP2
16845;SDS011;8539;53.188;8.696;2023-04-10T00:01:07;53.25;;;32.20;;
16845;SDS011;8539;53.188;8.696;2023-04-10T00:03:34;50.47;;;30.25;;
16845;SDS011;8539;53.188;8.696;2023-04-10T00:06:02;54.28;;;30.88;;
16845;SDS011;8539;53.188;8.696;2023-04-10T00:08:30;51.55;;;29.25;;
16845;SDS011;8539;53.188;8.696;2023-04-10T00:10:56;52.58;;;31.83;;
16845;SDS011;8539;53.188;8.696;2023-04-10T00:13:23;54.53;;;30.90;;
16845;SDS011;8539;53.188;8.696;2023-04-10T00:15:49;55.17;;;31.90;;
16845;SDS011;8539;53.188;8.696;2023-04-10T00:18:15;57.30;;;33.90;;
16845;SDS011;8539;53.188;8.696;2023-04-10T00:20:42;58.38;;;32.95;;
16845;SDS011;8539;53.188;8.696;2023-04-10T00:23:08;57.55;;;33.17;;
16845;SDS011;8539;53.188;8.696;2023-04-10T00:25:34;56.50;;;31.65;;
16845;SDS011;8539;53.188;8.696;2023-04-10T00:28:00;57.85;;;31.10;;
16845;SDS011;8539;53.188;8.696;2023-04-10T00:30:26;55.58;;;32.45;;
16845;SDS011;8539;53.188;8.696;2023-04-10T00:32:52;59.40;;;33.88;;
16845;SDS011;8539;53.188;8.696;2023-04-10T00:35:19;60.38;;;32.55;;
16845;SDS011;8539;53.188;8.696;2023-04-10T00:37:46;57.45;;;34.03;;
16845;SDS011;8539;53.188;8.696;2023-04-10T00:40:14;61.85;;;36.55;;
16845;SDS011;8539;53.188;8.696;2023-04-10T00:42:41;64.82;;;36.15;;
16845;SDS011;8539;53.188;8.696;2023-04-10T00:45:08;63.45;;;36.20;;
16845;SDS011;8539;53.188;8.696;2023-04-10T00:47:35;62.58;;;35.85;;
16845;SDS011;8539;53.188;8.696;2023-04-10T00:50:05;65.68;;;37.25;;
16845;SDS011;8539;53.188;8.696;2023-04-10T00:52:32;71.82;;;36.15;;
16845;SDS011;8539;53.188;8.696;2023-04-10T00:54:58;67.40;;;36.85;;
16845;SDS011;8539;53.188;8.696;2023-04-10T00:57:24;73.25;;;38.55;;
16845;SDS011;8539;53.188;8.696;2023-04-10T00:59:51;67.40;;;39.60;;
16845;SDS011;8539;53.188;8.696;2023-04-10T01:02:18;68.25;;;38.35;;
16845;SDS011;8539;53.188;8.696;2023-04-10T01:04:47;81.15;;;40.55;;
16845;SDS011;8539;53.188;8.696;2023-04-10T01:07:20;71.93;;;38.92;;
16845;SDS011;8539;53.188;8.696;2023-04-10T01:10:14;64.00;;;36.30;;
16845;SDS011;8539;53.188;8.696;2023-04-10T01:13:40;68.90;;;39.85;;
16845;SDS011;8539;53.188;8.696;2023-04-10T01:15:58;77.70;;;39.00;;
16845;SDS011;8539;53.188;8.696;2023-04-10T01:21:04;64.88;;;36.28;;
16845;SDS011;8539;53.188;8.696;2023-04-10T01:23:50;59.03;;;35.17;;
16845;SDS011;8539;53.188;8.696;2023-04-10T01:26:41;56.75;;;33.03;;
16845;SDS011;8539;53.188;8.696;2023-04-10T01:29:34;59.30;;;32.53;;
16845;SDS011;8539;53.188;8.696;2023-04-10T01:32:09;58.78;;;31.73;;
16845;SDS011;8539;53.188;8.696;2023-04-10T01:34:39;65.90;;;32.20;;
16845;SDS011;8539;53.188;8.696;2023-04-10T01:37:11;52.85;;;31.75;;
16845;SDS011;8539;53.188;8.696;2023-04-10T01:39:41;54.22;;;30.55;;
16845;SDS011;8539;53.188;8.696;2023-04-10T01:42:09;63.55;;;33.50;;
16845;SDS011;8539;53.188;8.696;2023-04-10T01:44:40;58.15;;;30.67;;
16845;SDS011;8539;53.188;8.696;2023-04-10T01:47:09;55.85;;;32.92;;
16845;SDS011;8539;53.188;8.696;2023-04-10T01:49:38;56.03;;;33.70;;
16845;SDS011;8539;53.188;8.696;2023-04-10T01:52:10;54.08;;;32.78;;
16845;SDS011;8539;53.188;8.696;2023-04-10T01:54:37;56.25;;;31.83;;
16845;SDS011;8539;53.188;8.696;2023-04-10T01:57:03;53.80;;;31.63;;
16845;SDS011;8539;53.188;8.696;2023-04-10T01:59:31;56.42;;;31.48;;
16845;SDS011;8539;53.188;8.696;2023-04-10T02:01:57;53.13;;;32.35;;
16845;SDS011;8539;53.188;8.696;2023-04-10T02:04:25;54.03;;;30.42;;
16845;SDS011;8539;53.188;8.696;2023-04-10T02:07:02;57.55;;;30.33;;
16845;SDS011;8539;53.188;8.696;2023-04-10T02:09:44;56.90;;;33.83;;
16845;SDS011;8539;53.188;8.696;2023-04-10T02:12:22;50.50;;;31.95;;
16845;SDS011;8539;53.188;8.696;2023-04-10T02:14:54;57.75;;;31.55;;
16845;SDS011;8539;53.188;8.696;2023-04-10T02:17:27;56.33;;;31.38;;
16845;SDS011;8539;53.188;8.696;2023-04-10T02:19:54;59.67;;;32.50;;
16845;SDS011;8539;53.188;8.696;2023-04-10T02:22:22;57.33;;;33.58;;
16845;SDS011;8539;53.188;8.696;2023-04-10T02:24:50;60.28;;;32.17;;
16845;SDS011;8539;53.188;8.696;2023-04-10T02:27:31;52.92;;;31.15;;
16845;SDS011;8539;53.188;8.696;2023-04-10T02:29:59;57.90;;;34.45;;
16845;SDS011;8539;53.188;8.696;2023-04-10T02:32:25;59.03;;;33.80;;
16845;SDS011;8539;53.188;8.696;2023-04-10T02:34:51;55.63;;;32.08;;
16845;SDS011;8539;53.188;8.696;2023-04-10T02:37:18;49.92;;;28.98;;
16845;SDS011;8539;53.188;8.696;2023-04-10T02:39:44;55.58;;;32.17;;
16845;SDS011;8539;53.188;8.696;2023-04-10T02:42:10;54.97;;;33.03;;
16845;SDS011;8539;53.188;8.696;2023-04-10T02:44:36;59.67;;;33.75;;
16845;SDS011;8539;53.188;8.696;2023-04-10T02:47:04;54.60;;;32.22;;
16845;SDS011;8539;53.188;8.696;2023-04-10T02:49:33;61.65;;;34.28;;
16845;SDS011;8539;53.188;8.696;2023-04-10T02:52:00;56.33;;;33.45;;
16845;SDS011;8539;53.188;8.696;2023-04-10T02:54:27;51.95;;;30.25;;
16845;SDS011;8539;53.188;8.696;2023-04-10T02:56:54;56.90;;;31.55;;
16845;SDS011;8539;53.188;8.696;2023-04-10T02:59:24;51.90;;;31.83;;
16845;SDS011;8539;53.188;8.696;2023-04-10T03:01:52;63.05;;;33.60;;
16845;SDS011;8539;53.188;8.696;2023-04-10T03:04:18;68.40;;;33.33;;
16845;SDS011;8539;53.188;8.696;2023-04-10T03:06:45;56.55;;;34.13;;
16845;SDS011;8539;53.188;8.696;2023-04-10T03:09:11;61.67;;;33.38;;
16845;SDS011;8539;53.188;8.696;2023-04-10T03:11:38;65.20;;;37.83;;
16845;SDS011;8539;53.188;8.696;2023-04-10T03:14:04;56.05;;;31.77;;
16845;SDS011;8539;53.188;8.696;2023-04-10T03:16:30;62.40;;;34.78;;
16845;SDS011;8539;53.188;8.696;2023-04-10T03:18:56;56.95;;;32.72;;
16845;SDS011;8539;53.188;8.696;2023-04-10T03:21:22;57.20;;;33.28;;
16845;SDS011;8539;53.188;8.696;2023-04-10T03:23:48;58.63;;;32.28;;
16845;SDS011;8539;53.188;8.696;2023-04-10T03:26:15;59.33;;;35.10;;
16845;SDS011;8539;53.188;8.696;2023-04-10T03:28:41;72.15;;;36.47;;
16845;SDS011;8539;53.188;8.696;2023-04-10T03:31:07;64.18;;;33.88;;
16845;SDS011;8539;53.188;8.696;2023-04-10T03:33:34;62.25;;;33.88;;
16845;SDS011;8539;53.188;8.696;2023-04-10T03:36:00;59.50;;;34.65;;
16845;SDS011;8539;53.188;8.696;2023-04-10T03:38:26;56.17;;;33.97;;
16845;SDS011;8539;53.188;8.696;2023-04-10T03:40:52;56.70;;;31.88;;
16845;SDS011;8539;53.188;8.696;2023-04-10T03:43:18;58.63;;;34.05;;
16845;SDS011;8539;53.188;8.696;2023-04-10T03:45:45;56.80;;;33.53;;
16845;SDS011;8539;53.188;8.696;2023-04-10T03:48:11;58.60;;;32.85;;
16845;SDS011;8539;53.188;8.696;2023-04-10T03:50:38;52.80;;;32.20;;
16845;SDS011;8539;53.188;8.696;2023-04-10T03:53:04;55.47;;;32.67;;
16845;SDS011;8539;53.188;8.696;2023-04-10T03:55:31;59.08;;;33.97;;
16845;SDS011;8539;53.188;8.696;2023-04-10T03:57:57;54.95;;;32.65;;
16845;SDS011;8539;53.188;8.696;2023-04-10T04:00:23;56.63;;;32.28;;
16845;SDS011;8539;53.188;8.696;2023-04-10T04:02:50;52.80;;;29.35;;
16845;SDS011;8539;53.188;8.696;2023-04-10T04:05:16;51.75;;;30.90;;
16845;SDS011;8539;53.188;8.696;2023-04-10T04:07:43;59.33;;;31.08;;
16845;SDS011;8539;53.188;8.696;2023-04-10T04:10:09;62.47;;;31.48;;
16845;SDS011;8539;53.188;8.696;2023-04-10T04:12:35;69.85;;;36.75;;
16845;SDS011;8539;53.188;8.696;2023-04-10T04:15:02;54.20;;;30.67;;
16845;SDS011;8539;53.188;8.696;2023-04-10T04:17:28;55.38;;;32.33;;
16845;SDS011;8539;53.188;8.696;2023-04-10T04:19:54;58.38;;;33.50;;
16845;SDS011;8539;53.188;8.696;2023-04-10T04:22:21;54.60;;;31.05;;
16845;SDS011;8539;53.188;8.696;2023-04-10T04:24:47;55.95;;;32.58;;
16845;SDS011;8539;53.188;8.696;2023-04-10T04:27:13;56.50;;;33.38;;
16845;SDS011;8539;53.188;8.696;2023-04-10T04:29:39;52.45;;;31.80;;
16845;SDS011;8539;53.188;8.696;2023-04-10T04:32:06;53.80;;;32.38;;
16845;SDS011;8539;53.188;8.696;2023-04-10T04:34:32;58.90;;;32.53;;
16845;SDS011;8539;53.188;8.696;2023-04-10T04:36:58;52.72;;;30.80;;
16845;SDS011;8539;53.188;8.696;2023-04-10T04:39:24;47.78;;;29.67;;
16845;SDS011;8539;53.188;8.696;2023-04-10T04:41:50;50.65;;;30.35;;
16845;SDS011;8539;53.188;8.696;2023-04-10T04:44:17;54.53;;;30.77;;
16845;SDS011;8539;53.188;8.696;2023-04-10T04:46:43;53.83;;;31.20;;
16845;SDS011;8539;53.188;8.696;2023-04-10T04:49:10;53.50;;;30.92;;
16845;SDS011;8539;53.188;8.696;2023-04-10T04:51:36;52.53;;;31.38;;
16845;SDS011;8539;53.188;8.696;2023-04-10T04:54:03;48.88;;;29.70;;
16845;SDS011;8539;53.188;8.696;2023-04-10T04:56:30;50.55;;;27.73;;
16845;SDS011;8539;53.188;8.696;2023-04-10T04:58:56;52.92;;;33.17;;
16845;SDS011;8539;53.188;8.696;2023-04-10T05:01:22;50.90;;;30.25;;
16845;SDS011;8539;53.188;8.696;2023-04-10T05:03:49;59.00;;;32.08;;
16845;SDS011;8539;53.188;8.696;2023-04-10T05:06:15;50.53;;;30.23;;
16845;SDS011;8539;53.188;8.696;2023-04-10T05:08:43;50.70;;;30.42;;
16845;SDS011;8539;53.188;8.696;2023-04-10T05:11:09;50.13;;;30.90;;
16845;SDS011;8539;53.188;8.696;2023-04-10T05:13:35;51.05;;;29.75;;
16845;SDS011;8539;53.188;8.696;2023-04-10T05:16:01;50.63;;;29.50;;
16845;SDS011;8539;53.188;8.696;2023-04-10T05:18:27;50.72;;;28.15;;
16845;SDS011;8539;53.188;8.696;2023-04-10T05:20:53;50.70;;;29.30;;
16845;SDS011;8539;53.188;8.696;2023-04-10T05:23:19;46.78;;;28.00;;
16845;SDS011;8539;53.188;8.696;2023-04-10T05:25:45;44.67;;;27.90;;
16845;SDS011;8539;53.188;8.696;2023-04-10T05:28:11;46.65;;;29.25;;
16845;SDS011;8539;53.188;8.696;2023-04-10T05:30:37;48.85;;;29.50;;
16845;SDS011;8539;53.188;8.696;2023-04-10T05:33:03;51.67;;;30.58;;
16845;SDS011;8539;53.188;8.696;2023-04-10T05:35:30;50.38;;;28.77;;
16845;SDS011;8539;53.188;8.696;2023-04-10T05:37:56;43.95;;;27.17;;
16845;SDS011;8539;53.188;8.696;2023-04-10T05:40:23;49.03;;;27.98;;
16845;SDS011;8539;53.188;8.696;2023-04-10T05:42:50;48.60;;;29.20;;
16845;SDS011;8539;53.188;8.696;2023-04-10T05:45:17;48.47;;;29.13;;
16845;SDS011;8539;53.188;8.696;2023-04-10T05:47:43;47.55;;;28.38;;
16845;SDS011;8539;53.188;8.696;2023-04-10T05:50:09;47.60;;;26.52;;
16845;SDS011;8539;53.188;8.696;2023-04-10T05:52:35;48.70;;;28.20;;
16845;SDS011;8539;53.188;8.696;2023-04-10T05:55:01;42.03;;;27.38;;
16845;SDS011;8539;53.188;8.696;2023-04-10T05:57:28;49.00;;;27.35;;
16845;SDS011;8539;53.188;8.696;2023-04-10T05:59:54;46.20;;;28.13;;
16845;SDS011;8539;53.188;8.696;2023-04-10T06:02:21;45.50;;;28.13;;
16845;SDS011;8539;53.188;8.696;2023-04-10T06:04:47;41.95;;;26.63;;
16845;SDS011;8539;53.188;8.696;2023-04-10T06:07:13;53.38;;;27.80;;
16845;SDS011;8539;53.188;8.696;2023-04-10T06:09:39;46.83;;;26.85;;
16845;SDS011;8539;53.188;8.696;2023-04-10T06:12:05;45.08;;;25.88;;
16845;SDS011;8539;53.188;8.696;2023-04-10T06:14:31;42.95;;;25.33;;
16845;SDS011;8539;53.188;8.696;2023-04-10T06:16:57;42.33;;;27.60;;
16845;SDS011;8539;53.188;8.696;2023-04-10T06:19:23;41.45;;;25.27;;
16845;SDS011;8539;53.188;8.696;2023-04-10T06:21:49;46.20;;;26.95;;
16845;SDS011;8539;53.188;8.696;2023-04-10T06:24:16;41.15;;;25.90;;
16845;SDS011;8539;53.188;8.696;2023-04-10T06:26:43;38.78;;;24.23;;
16845;SDS011;8539;53.188;8.696;2023-04-10T06:29:09;42.42;;;25.58;;
16845;SDS011;8539;53.188;8.696;2023-04-10T06:31:35;41.17;;;25.27;;
16845;SDS011;8539;53.188;8.696;2023-04-10T06:34:01;36.72;;;22.58;;
16845;SDS011;8539;53.188;8.696;2023-04-10T06:36:27;40.03;;;23.67;;
16845;SDS011;8539;53.188;8.696;2023-04-10T06:38:53;37.47;;;24.08;;
16845;SDS011;8539;53.188;8.696;2023-04-10T06:41:19;37.42;;;21.95;;
16845;SDS011;8539;53.188;8.696;2023-04-10T06:43:45;36.90;;;22.38;;
16845;SDS011;8539;53.188;8.696;2023-04-10T06:46:12;30.92;;;20.92;;
16845;SDS011;8539;53.188;8.696;2023-04-10T06:48:38;32.28;;;20.27;;
16845;SDS011;8539;53.188;8.696;2023-04-10T06:51:04;28.80;;;19.35;;
16845;SDS011;8539;53.188;8.696;2023-04-10T06:53:35;31.60;;;19.45;;
16845;SDS011;8539;53.188;8.696;2023-04-10T06:56:01;29.35;;;20.15;;
16845;SDS011;8539;53.188;8.696;2023-04-10T06:58:28;35.20;;;20.85;;
16845;SDS011;8539;53.188;8.696;2023-04-10T07:00:54;28.23;;;19.40;;
16845;SDS011;8539;53.188;8.696;2023-04-10T07:03:20;29.13;;;18.75;;
16845;SDS011;8539;53.188;8.696;2023-04-10T07:05:47;28.75;;;18.58;;
16845;SDS011;8539;53.188;8.696;2023-04-10T07:08:13;30.45;;;19.77;;
16845;SDS011;8539;53.188;8.696;2023-04-10T07:10:39;32.42;;;19.95;;
16845;SDS011;8539;53.188;8.696;2023-04-10T07:13:05;24.40;;;17.02;;
16845;SDS011;8539;53.188;8.696;2023-04-10T07:15:31;26.83;;;19.05;;
16845;SDS011;8539;53.188;8.696;2023-04-10T07:17:57;24.10;;;17.25;;
16845;SDS011;8539;53.188;8.696;2023-04-10T07:20:23;26.48;;;18.77;;
16845;SDS011;8539;53.188;8.696;2023-04-10T07:22:50;25.15;;;17.48;;
16845;SDS011;8539;53.188;8.696;2023-04-10T07:25:16;24.52;;;17.90;;
16845;SDS011;8539;53.188;8.696;2023-04-10T07:27:42;26.40;;;17.98;;
16845;SDS011;8539;53.188;8.696;2023-04-10T07:30:09;25.38;;;17.85;;
16845;SDS011;8539;53.188;8.696;2023-04-10T07:32:35;24.27;;;17.25;;
16845;SDS011;8539;53.188;8.696;2023-04-10T07:35:04;27.35;;;17.50;;
16845;SDS011;8539;53.188;8.696;2023-04-10T07:37:31;23.35;;;16.17;;
16845;SDS011;8539;53.188;8.696;2023-04-10T07:39:57;28.13;;;17.75;;
16845;SDS011;8539;53.188;8.696;2023-04-10T07:42:23;25.88;;;17.42;;
16845;SDS011;8539;53.188;8.696;2023-04-10T07:44:50;24.48;;;16.92;;
16845;SDS011;8539;53.188;8.696;2023-04-10T07:47:16;23.45;;;16.60;;
16845;SDS011;8539;53.188;8.696;2023-04-10T07:49:42;22.50;;;16.25;;
16845;SDS011;8539;53.188;8.696;2023-04-10T07:52:08;26.67;;;17.15;;
16845;SDS011;8539;53.188;8.696;2023-04-10T07:54:34;24.98;;;16.67;;
16845;SDS011;8539;53.188;8.696;2023-04-10T07:57:01;23.85;;;16.67;;
16845;SDS011;8539;53.188;8.696;2023-04-10T07:59:27;24.25;;;16.30;;
16845;SDS011;8539;53.188;8.696;2023-04-10T08:01:53;23.63;;;16.50;;
16845;SDS011;8539;53.188;8.696;2023-04-10T08:04:19;24.75;;;16.08;;
16845;SDS011;8539;53.188;8.696;2023-04-10T08:06:46;21.73;;;15.68;;
16845;SDS011;8539;53.188;8.696;2023-04-10T08:09:12;21.92;;;15.07;;
16845;SDS011;8539;53.188;8.696;2023-04-10T08:11:38;22.38;;;16.85;;
16845;SDS011;8539;53.188;8.696;2023-04-10T08:14:04;21.73;;;15.80;;
16845;SDS011;8539;53.188;8.696;2023-04-10T08:16:31;19.63;;;15.27;;
16845;SDS011;8539;53.188;8.696;2023-04-10T08:18:59;20.92;;;14.90;;
16845;SDS011;8539;53.188;8.696;2023-04-10T08:21:27;19.70;;;14.15;;
16845;SDS011;8539;53.188;8.696;2023-04-10T08:23:55;21.02;;;15.73;;
16845;SDS011;8539;53.188;8.696;2023-04-10T08:26:22;19.73;;;14.05;;
16845;SDS011;8539;53.188;8.696;2023-04-10T08:28:50;19.88;;;14.23;;
16845;SDS011;8539;53.188;8.696;2023-04-10T08:31:18;20.27;;;15.05;;
16845;SDS011;8539;53.188;8.696;2023-04-10T08:33:45;18.63;;;13.55;;
16845;SDS011;8539;53.188;8.696;2023-04-10T08:36:13;20.17;;;13.43;;
16845;SDS011;8539;53.188;8.696;2023-04-10T08:38:40;20.13;;;14.48;;
16845;SDS011;8539;53.188;8.696;2023-04-10T08:41:09;18.48;;;14.48;;
16845;SDS011;8539;53.188;8.696;2023-04-10T08:43:36;16.65;;;12.15;;
16845;SDS011;8539;53.188;8.696;2023-04-10T08:46:03;16.35;;;13.40;;
16845;SDS011;8539;53.188;8.696;2023-04-10T08:48:46;18.70;;;12.38;;
16845;SDS011;8539;53.188;8.696;2023-04-10T08:51:19;20.52;;;13.73;;
16845;SDS011;8539;53.188;8.696;2023-04-10T08:53:50;15.32;;;12.38;;
16845;SDS011;8539;53.188;8.696;2023-04-10T08:56:18;17.25;;;12.00;;
16845;SDS011;8539;53.188;8.696;2023-04-10T08:58:45;15.60;;;11.30;;
16845;SDS011;8539;53.188;8.696;2023-04-10T09:01:12;15.80;;;12.65;;
16845;SDS011;8539;53.188;8.696;2023-04-10T09:03:39;15.80;;;11.77;;
16845;SDS011;8539;53.188;8.696;2023-04-10T09:06:05;15.82;;;11.80;;
16845;SDS011;8539;53.188;8.696;2023-04-10T09:08:32;19.38;;;12.52;;
16845;SDS011;8539;53.188;8.696;2023-04-10T09:11:00;18.02;;;12.63;;
16845;SDS011;8539;53.188;8.696;2023-04-10T09:13:37;14.68;;;11.30;;
16845;SDS011;8539;53.188;8.696;2023-04-10T09:16:08;20.58;;;11.70;;
16845;SDS011;8539;53.188;8.696;2023-04-10T09:18:53;15.30;;;11.68;;
16845;SDS011;8539;53.188;8.696;2023-04-10T09:21:20;13.30;;;10.32;;
16845;SDS011;8539;53.188;8.696;2023-04-10T09:23:47;13.75;;;10.20;;
16845;SDS011;8539;53.188;8.696;2023-04-10T09:36:52;56.03;;;14.03;;
16845;SDS011;8539;53.188;8.696;2023-04-10T09:39:31;20.35;;;10.02;;
16845;SDS011;8539;53.188;8.696;2023-04-10T09:42:05;30.00;;;9.65;;
16845;SDS011;8539;53.188;8.696;2023-04-10T09:44:36;11.48;;;9.23;;
16845;SDS011;8539;53.188;8.696;2023-04-10T09:49:45;15.73;;;9.40;;
16845;SDS011;8539;53.188;8.696;2023-04-10T09:52:25;15.38;;;8.80;;
16845;SDS011;8539;53.188;8.696;2023-04-10T09:54:53;26.70;;;11.23;;
16845;SDS011;8539;53.188;8.696;2023-04-10T09:57:24;14.27;;;8.57;;
16845;SDS011;8539;53.188;8.696;2023-04-10T09:59:55;16.30;;;8.55;;
16845;SDS011;8539;53.188;8.696;2023-04-10T10:02:27;9.38;;;7.70;;
16845;SDS011;8539;53.188;8.696;2023-04-10T10:04:54;14.05;;;7.97;;
16845;SDS011;8539;53.188;8.696;2023-04-10T10:07:25;8.57;;;7.25;;
16845;SDS011;8539;53.188;8.696;2023-04-10T10:09:52;9.30;;;7.40;;
16845;SDS011;8539;53.188;8.696;2023-04-10T10:12:20;28.08;;;8.70;;
16845;SDS011;8539;53.188;8.696;2023-04-10T10:17:38;37.58;;;10.23;;
16845;SDS011;8539;53.188;8.696;2023-04-10T10:20:10;10.05;;;7.72;;
16845;SDS011;8539;53.188;8.696;2023-04-10T10:22:38;15.73;;;7.50;;
16845;SDS011;8539;53.188;8.696;2023-04-10T10:25:05;21.20;;;8.50;;
16845;SDS011;8539;53.188;8.696;2023-04-10T10:27:35;15.98;;;7.88;;
16845;SDS011;8539;53.188;8.696;2023-04-10T10:30:02;11.23;;;7.97;;
16845;SDS011;8539;53.188;8.696;2023-04-10T10:32:31;12.77;;;7.57;;
16845;SDS011;8539;53.188;8.696;2023-04-10T10:34:59;10.15;;;6.25;;
16845;SDS011;8539;53.188;8.696;2023-04-10T10:37:30;9.10;;;7.45;;
16845;SDS011;8539;53.188;8.696;2023-04-10T10:43:35;14.07;;;7.90;;
16845;SDS011;8539;53.188;8.696;2023-04-10T10:45:52;8.75;;;6.97;;
16845;SDS011;8539;53.188;8.696;2023-04-10T10:48:29;31.98;;;10.48;;
16845;SDS011;8539;53.188;8.696;2023-04-10T10:50:56;9.63;;;7.45;;
16845;SDS011;8539;53.188;8.696;2023-04-10T10:53:42;8.85;;;6.50;;
16845;SDS011;8539;53.188;8.696;2023-04-10T10:58:45;10.40;;;7.38;;
16845;SDS011;8539;53.188;8.696;2023-04-10T11:01:12;8.55;;;7.10;;
16845;SDS011;8539;53.188;8.696;2023-04-10T11:03:38;8.43;;;6.65;;
16845;SDS011;8539;53.188;8.696;2023-04-10T11:06:08;7.63;;;6.72;;
16845;SDS011;8539;53.188;8.696;2023-04-10T11:08:40;9.80;;;7.97;;
16845;SDS011;8539;53.188;8.696;2023-04-10T11:16:20;9.43;;;7.60;;
16845;SDS011;8539;53.188;8.696;2023-04-10T11:21:14;14.73;;;7.05;;
16845;SDS011;8539;53.188;8.696;2023-04-10T11:31:42;9.63;;;7.07;;
16845;SDS011;8539;53.188;8.696;2023-04-10T11:34:28;11.30;;;7.43;;
16845;SDS011;8539;53.188;8.696;2023-04-10T11:36:58;11.68;;;6.88;;
16845;SDS011;8539;53.188;8.696;2023-04-10T11:39:29;10.48;;;6.38;;
16845;SDS011;8539;53.188;8.696;2023-04-10T11:41:55;10.05;;;6.65;;
16845;SDS011;8539;53.188;8.696;2023-04-10T11:44:29;8.02;;;6.80;;
16845;SDS011;8539;53.188;8.696;2023-04-10T11:46:57;7.60;;;5.35;;
16845;SDS011;8539;53.188;8.696;2023-04-10T11:49:24;12.73;;;5.55;;
16845;SDS011;8539;53.188;8.696;2023-04-10T11:51:55;9.48;;;6.20;;
16845;SDS011;8539;53.188;8.696;2023-04-10T11:54:22;16.20;;;6.85;;
16845;SDS011;8539;53.188;8.696;2023-04-10T11:56:56;9.60;;;5.80;;
16845;SDS011;8539;53.188;8.696;2023-04-10T11:59:36;22.70;;;7.28;;
16845;SDS011;8539;53.188;8.696;2023-04-10T12:04:39;9.63;;;5.53;;
16845;SDS011;8539;53.188;8.696;2023-04-10T12:07:06;19.02;;;6.45;;
16845;SDS011;8539;53.188;8.696;2023-04-10T12:09:33;21.25;;;7.10;;
16845;SDS011;8539;53.188;8.696;2023-04-10T12:12:01;29.65;;;7.20;;
16845;SDS011;8539;53.188;8.696;2023-04-10T12:16:57;7.05;;;5.88;;
16845;SDS011;8539;53.188;8.696;2023-04-10T12:19:23;8.40;;;6.85;;
16845;SDS011;8539;53.188;8.696;2023-04-10T12:21:50;13.98;;;5.97;;
16845;SDS011;8539;53.188;8.696;2023-04-10T12:27:07;25.35;;;7.30;;
16845;SDS011;8539;53.188;8.696;2023-04-10T12:29:40;7.93;;;5.68;;
16845;SDS011;8539;53.188;8.696;2023-04-10T12:32:07;6.32;;;5.43;;
16845;SDS011;8539;53.188;8.696;2023-04-10T12:34:35;7.05;;;5.57;;
16845;SDS011;8539;53.188;8.696;2023-04-10T12:37:01;7.40;;;5.18;;
16845;SDS011;8539;53.188;8.696;2023-04-10T12:39:27;11.20;;;4.68;;
16845;SDS011;8539;53.188;8.696;2023-04-10T12:42:09;5.00;;;4.38;;
16845;SDS011;8539;53.188;8.696;2023-04-10T12:44:56;10.23;;;4.70;;
16845;SDS011;8539;53.188;8.696;2023-04-10T12:47:24;5.68;;;4.47;;
16845;SDS011;8539;53.188;8.696;2023-04-10T12:50:05;7.25;;;4.60;;
16845;SDS011;8539;53.188;8.696;2023-04-10T12:52:33;24.33;;;7.10;;
16845;SDS011;8539;53.188;8.696;2023-04-10T12:57:45;6.70;;;5.30;;
16845;SDS011;8539;53.188;8.696;2023-04-10T13:00:13;13.98;;;5.50;;
16845;SDS011;8539;53.188;8.696;2023-04-10T13:02:41;20.55;;;5.57;;
16845;SDS011;8539;53.188;8.696;2023-04-10T13:05:08;9.20;;;5.13;;
16845;SDS011;8539;53.188;8.696;2023-04-10T13:07:34;10.77;;;4.93;;
16845;SDS011;8539;53.188;8.696;2023-04-10T13:10:01;10.13;;;5.00;;
16845;SDS011;8539;53.188;8.696;2023-04-10T13:12:29;14.52;;;5.03;;
16845;SDS011;8539;53.188;8.696;2023-04-10T13:14:55;11.55;;;4.80;;
16845;SDS011;8539;53.188;8.696;2023-04-10T13:17:22;15.88;;;5.70;;
16845;SDS011;8539;53.188;8.696;2023-04-10T13:19:49;34.38;;;7.30;;
16845;SDS011;8539;53.188;8.696;2023-04-10T13:22:15;8.60;;;4.68;;
16845;SDS011;8539;53.188;8.696;2023-04-10T13:24:41;11.75;;;5.35;;
16845;SDS011;8539;53.188;8.696;2023-04-10T13:27:08;15.02;;;4.97;;
16845;SDS011;8539;53.188;8.696;2023-04-10T13:29:35;10.13;;;6.10;;
16845;SDS011;8539;53.188;8.696;2023-04-10T13:32:03;9.43;;;5.05;;
16845;SDS011;8539;53.188;8.696;2023-04-10T13:34:31;17.17;;;5.28;;
16845;SDS011;8539;53.188;8.696;2023-04-10T13:36:58;7.80;;;4.68;;
16845;SDS011;8539;53.188;8.696;2023-04-10T13:39:25;6.28;;;4.30;;
16845;SDS011;8539;53.188;8.696;2023-04-10T13:41:52;7.22;;;4.43;;
16845;SDS011;8539;53.188;8.696;2023-04-10T13:44:19;5.88;;;4.22;;
16845;SDS011;8539;53.188;8.696;2023-04-10T13:46:45;7.70;;;4.40;;
16845;SDS011;8539;53.188;8.696;2023-04-10T13:49:11;4.57;;;3.92;;
16845;SDS011;8539;53.188;8.696;2023-04-10T13:51:41;6.40;;;3.95;;
16845;SDS011;8539;53.188;8.696;2023-04-10T13:54:09;5.38;;;3.97;;
16845;SDS011;8539;53.188;8.696;2023-04-10T13:56:35;8.13;;;4.00;;
16845;SDS011;8539;53.188;8.696;2023-04-10T13:59:02;5.40;;;3.83;;
16845;SDS011;8539;53.188;8.696;2023-04-10T14:01:29;4.35;;;3.42;;
16845;SDS011;8539;53.188;8.696;2023-04-10T14:03:56;4.75;;;4.03;;
16845;SDS011;8539;53.188;8.696;2023-04-10T14:06:22;9.05;;;4.28;;
16845;SDS011;8539;53.188;8.696;2023-04-10T14:08:48;8.25;;;4.10;;
16845;SDS011;8539;53.188;8.696;2023-04-10T14:11:14;6.22;;;3.85;;
16845;SDS011;8539;53.188;8.696;2023-04-10T14:13:41;7.13;;;3.47;;
16845;SDS011;8539;53.188;8.696;2023-04-10T14:16:07;8.50;;;3.45;;
16845;SDS011;8539;53.188;8.696;2023-04-10T14:18:33;6.45;;;4.38;;
16845;SDS011;8539;53.188;8.696;2023-04-10T14:21:00;11.95;;;3.72;;
16845;SDS011;8539;53.188;8.696;2023-04-10T14:23:27;6.78;;;4.25;;
16845;SDS011;8539;53.188;8.696;2023-04-10T14:25:53;4.13;;;3.58;;
16845;SDS011;8539;53.188;8.696;2023-04-10T14:28:19;4.10;;;3.40;;
16845;SDS011;8539;53.188;8.696;2023-04-10T14:30:45;11.52;;;3.88;;
16845;SDS011;8539;53.188;8.696;2023-04-10T14:33:18;6.15;;;3.88;;
16845;SDS011;8539;53.188;8.696;2023-04-10T14:35:45;8.77;;;4.07;;
16845;SDS011;8539;53.188;8.696;2023-04-10T14:38:11;4.35;;;3.42;;
16845;SDS011;8539;53.188;8.696;2023-04-10T14:40:38;10.07;;;4.03;;
16845;SDS011;8539;53.188;8.696;2023-04-10T14:43:08;6.70;;;4.47;;
16845;SDS011;8539;53.188;8.696;2023-04-10T14:45:34;5.22;;;3.75;;
16845;SDS011;8539;53.188;8.696;2023-04-10T14:48:00;3.90;;;3.53;;
16845;SDS011;8539;53.188;8.696;2023-04-10T14:50:27;8.13;;;3.90;;
16845;SDS011;8539;53.188;8.696;2023-04-10T14:52:55;8.52;;;4.25;;
16845;SDS011;8539;53.188;8.696;2023-04-10T14:55:21;10.13;;;4.32;;
16845;SDS011;8539;53.188;8.696;2023-04-10T14:57:49;5.45;;;4.03;;
16845;SDS011;8539;53.188;8.696;2023-04-10T15:00:15;5.60;;;4.05;;
16845;SDS011;8539;53.188;8.696;2023-04-10T15:02:41;8.60;;;4.55;;
16845;SDS011;8539;53.188;8.696;2023-04-10T15:05:07;12.60;;;4.22;;
16845;SDS011;8539;53.188;8.696;2023-04-10T15:07:33;7.07;;;3.85;;
16845;SDS011;8539;53.188;8.696;2023-04-10T15:10:00;4.53;;;3.85;;
16845;SDS011;8539;53.188;8.696;2023-04-10T15:12:26;5.35;;;4.25;;
16845;SDS011;8539;53.188;8.696;2023-04-10T15:14:52;16.20;;;5.00;;
16845;SDS011;8539;53.188;8.696;2023-04-10T15:17:20;9.85;;;5.00;;
16845;SDS011;8539;53.188;8.696;2023-04-10T15:19:47;5.22;;;4.15;;
16845;SDS011;8539;53.188;8.696;2023-04-10T15:22:13;14.93;;;4.70;;
16845;SDS011;8539;53.188;8.696;2023-04-10T15:24:40;7.75;;;4.03;;
16845;SDS011;8539;53.188;8.696;2023-04-10T15:27:06;4.65;;;3.85;;
16845;SDS011;8539;53.188;8.696;2023-04-10T15:29:37;5.95;;;4.18;;
16845;SDS011;8539;53.188;8.696;2023-04-10T15:32:05;10.00;;;4.35;;
16845;SDS011;8539;53.188;8.696;2023-04-10T15:34:31;7.30;;;3.90;;
16845;SDS011;8539;53.188;8.696;2023-04-10T15:36:57;6.53;;;3.70;;